Fremont, Missouri
Current Conditions -  °F | °C
As of 6:53 PM on Wednesday 22 Oct 2014 (Local Time) from KUNO Reporting Station
Clear Clear  
Wind Chill: 55°   Ceiling: Unl
Heat Index: 55°   Visibility: 10mi
Dew Point: 43°   Wind: 3mph
Humidity: 64%   Direction: 110°ESE
Pressure: 30.19"   Gusts: NA
Location:  36.95°N, 91.16°W
Report Text: KUNO 222353Z AUTO 11003KT 10SM CLR 13/06 A3019 RMK AO2 SLP224 T01280061 10189 20128 55004
Loading
Personal Weather Stations






























Interactive Weather Map
Tropical Storm Tracking
New forecast layout! Learn more

10-Day Weather Forecast

Advertisements
Track Severe Weather on mobile